createdAt,value
2018-05-16T00:02:24.769Z,22.56
2018-05-16T00:04:51.452Z,22.56
2018-05-16T00:07:18.124Z,22.56
2018-05-16T00:09:44.801Z,22.55
2018-05-16T00:12:11.517Z,22.52
2018-05-16T00:14:38.167Z,22.52
2018-05-16T00:17:04.886Z,22.51
2018-05-16T00:19:31.567Z,22.51
2018-05-16T00:21:58.214Z,22.52
2018-05-16T00:24:24.946Z,22.51
2018-05-16T00:26:51.493Z,22.49
2018-05-16T00:29:18.137Z,22.52
2018-05-16T00:31:44.777Z,22.49
2018-05-16T00:34:11.413Z,22.48
2018-05-16T00:36:38.048Z,22.48
2018-05-16T00:39:04.690Z,22.47
2018-05-16T00:41:31.329Z,22.48
2018-05-16T00:43:57.966Z,22.47
2018-05-16T00:46:24.596Z,22.46
2018-05-16T00:48:51.229Z,22.48
2018-05-16T00:51:17.879Z,22.45
2018-05-16T00:53:44.507Z,22.45
2018-05-16T00:56:11.138Z,22.45
2018-05-16T00:58:37.778Z,22.45
2018-05-16T01:01:04.409Z,22.46
2018-05-16T01:03:31.042Z,22.43
2018-05-16T01:05:57.710Z,22.42
2018-05-16T01:08:24.337Z,22.40
2018-05-16T01:10:50.974Z,22.42
2018-05-16T01:13:17.621Z,22.39
2018-05-16T01:15:44.250Z,22.39
2018-05-16T01:18:10.895Z,22.39
2018-05-16T01:20:37.525Z,22.37
2018-05-16T01:23:04.173Z,22.39
2018-05-16T01:25:30.808Z,22.38
2018-05-16T01:27:57.449Z,22.37
2018-05-16T01:30:24.141Z,22.36
2018-05-16T01:32:50.778Z,22.35
2018-05-16T01:35:17.423Z,22.38
2018-05-16T01:37:44.058Z,22.36
2018-05-16T01:40:10.748Z,22.34
2018-05-16T01:42:37.358Z,22.35
2018-05-16T01:45:03.998Z,22.34
2018-05-16T01:47:30.633Z,22.37
2018-05-16T01:49:57.290Z,22.35
2018-05-16T01:52:23.925Z,22.32
2018-05-16T01:54:50.563Z,22.33
2018-05-16T01:57:17.215Z,22.32
2018-05-16T01:59:43.866Z,22.36
2018-05-16T02:02:10.530Z,22.33
2018-05-16T02:04:37.135Z,22.29
2018-05-16T02:07:03.784Z,22.30
2018-05-16T02:09:30.478Z,22.28
2018-05-16T02:11:57.105Z,22.26
2018-05-16T02:14:23.743Z,22.26
2018-05-16T02:16:50.474Z,22.26
2018-05-16T02:19:17.116Z,22.27
2018-05-16T02:21:43.760Z,22.24
2018-05-16T02:24:10.398Z,22.24
2018-05-16T02:26:37.035Z,22.26
2018-05-16T02:29:03.671Z,22.22
2018-05-16T02:31:30.330Z,22.22
2018-05-16T02:33:56.945Z,22.23
2018-05-16T02:36:23.581Z,22.19
2018-05-16T02:38:50.224Z,22.18
2018-05-16T02:41:16.864Z,22.18
2018-05-16T02:43:43.506Z,22.15
2018-05-16T02:46:10.153Z,22.19
2018-05-16T02:48:36.805Z,22.17
2018-05-16T02:51:03.443Z,22.18
2018-05-16T02:53:30.079Z,22.15
2018-05-16T02:55:56.715Z,22.16
2018-05-16T02:58:23.347Z,22.15
2018-05-16T03:00:49.991Z,22.13
2018-05-16T03:03:16.637Z,22.11
2018-05-16T03:05:43.277Z,22.08
2018-05-16T03:08:09.944Z,22.10
2018-05-16T03:10:38.448Z,22.26
2018-05-16T03:13:03.179Z,22.12
2018-05-16T03:15:29.810Z,22.04
2018-05-16T03:17:56.450Z,22.01
2018-05-16T03:20:23.088Z,21.96
2018-05-16T03:22:49.731Z,21.99
2018-05-16T03:25:16.374Z,21.94
2018-05-16T03:27:43.016Z,22.02
2018-05-16T03:30:09.655Z,21.92
2018-05-16T03:32:36.327Z,22.03
2018-05-16T03:35:02.935Z,21.84
2018-05-16T03:37:29.576Z,21.75
2018-05-16T03:39:56.206Z,21.82
2018-05-16T03:42:22.887Z,21.69
2018-05-16T03:44:49.529Z,21.78
2018-05-16T03:47:16.162Z,21.91
2018-05-16T03:49:42.798Z,21.92
2018-05-16T03:52:09.445Z,21.87
2018-05-16T03:54:36.085Z,21.98
2018-05-16T03:57:02.723Z,22.01
2018-05-16T03:59:29.361Z,22.04
2018-05-16T04:01:56.013Z,22.13
2018-05-16T04:04:22.658Z,22.13
2018-05-16T04:06:49.291Z,22.16
2018-05-16T04:09:15.934Z,22.18
2018-05-16T04:11:42.565Z,22.33
2018-05-16T04:14:09.209Z,22.39
2018-05-16T04:16:35.886Z,22.45
2018-05-16T04:19:02.565Z,22.68
2018-05-16T04:21:29.195Z,22.83
2018-05-16T04:23:55.832Z,22.95
2018-05-16T04:26:22.486Z,22.92
2018-05-16T04:28:49.176Z,23.02
2018-05-16T04:31:15.762Z,23.10
2018-05-16T04:33:42.408Z,23.27
2018-05-16T04:36:09.036Z,23.37
2018-05-16T04:38:35.669Z,23.37
2018-05-16T04:41:02.340Z,23.51
2018-05-16T04:43:28.986Z,23.61
2018-05-16T04:45:55.637Z,23.71
2018-05-16T04:48:22.282Z,23.76
2018-05-16T04:50:48.922Z,23.85
2018-05-16T04:53:15.583Z,23.94
2018-05-16T04:55:43.583Z,23.90
2018-05-16T04:58:08.904Z,24.07
2018-05-16T05:00:35.542Z,24.05
2018-05-16T05:03:02.196Z,23.99
2018-05-16T05:05:28.839Z,23.87
2018-05-16T05:07:55.476Z,23.84
2018-05-16T05:10:22.114Z,23.98
2018-05-16T05:12:48.802Z,24.08
2018-05-16T05:15:15.434Z,24.22
2018-05-16T05:17:42.072Z,24.09
2018-05-16T05:20:08.716Z,24.25
2018-05-16T05:22:35.367Z,24.12
2018-05-16T05:25:02.013Z,24.18
2018-05-16T05:27:28.650Z,24.20
2018-05-16T05:29:55.314Z,24.05
2018-05-16T05:32:22.168Z,24.06
2018-05-16T05:34:48.847Z,24.14
2018-05-16T05:37:15.486Z,24.22
2018-05-16T05:39:42.141Z,24.27
2018-05-16T05:42:08.782Z,24.22
2018-05-16T05:44:35.436Z,24.06
2018-05-16T05:47:02.127Z,23.99
2018-05-16T05:49:28.726Z,24.07
2018-05-16T05:51:55.380Z,24.22
2018-05-16T05:54:22.024Z,24.37
2018-05-16T05:56:48.808Z,24.32
2018-05-16T05:59:15.446Z,24.33
2018-05-16T06:01:42.234Z,24.43
2018-05-16T06:04:08.914Z,24.30
2018-05-16T06:06:35.505Z,23.99
2018-05-16T06:09:02.145Z,23.97
2018-05-16T06:11:28.782Z,23.91
2018-05-16T06:13:55.447Z,24.09
2018-05-16T06:16:22.094Z,24.10
2018-05-16T06:18:48.744Z,24.24
2018-05-16T06:21:15.388Z,24.37
2018-05-16T06:23:42.163Z,24.39
2018-05-16T06:26:08.906Z,24.47
2018-05-16T06:28:35.608Z,24.39
2018-05-16T06:31:02.436Z,24.47
2018-05-16T06:33:29.101Z,24.42
2018-05-16T06:35:55.725Z,24.45
2018-05-16T06:38:23.373Z,24.51
2018-05-16T06:40:50.061Z,24.30
2018-05-16T06:43:16.702Z,24.21
2018-05-16T06:45:43.378Z,24.33
2018-05-16T06:48:10.024Z,24.33
2018-05-16T06:50:36.721Z,24.36
2018-05-16T06:53:03.362Z,24.44
2018-05-16T06:55:30.006Z,24.39
2018-05-16T06:57:56.685Z,24.71
2018-05-16T07:00:23.291Z,24.66
2018-05-16T07:02:49.967Z,24.48
2018-05-16T07:05:16.581Z,24.04
2018-05-16T07:07:43.225Z,24.01
2018-05-16T07:10:09.880Z,24.17
2018-05-16T07:12:36.526Z,24.33
2018-05-16T07:15:03.169Z,24.38
2018-05-16T07:17:29.822Z,24.38
2018-05-16T07:19:56.470Z,24.26
2018-05-16T07:22:23.109Z,24.29
2018-05-16T07:24:49.746Z,24.13
2018-05-16T07:27:16.403Z,24.26
2018-05-16T07:29:43.050Z,24.22
2018-05-16T07:32:09.690Z,24.10
2018-05-16T07:34:36.352Z,24.27
2018-05-16T07:37:03.129Z,24.33
2018-05-16T07:39:29.779Z,24.37
2018-05-16T07:41:56.432Z,24.26
2018-05-16T07:44:23.071Z,24.33
2018-05-16T07:46:49.764Z,24.19
2018-05-16T07:49:16.427Z,24.12
2018-05-16T07:51:43.072Z,24.24
2018-05-16T07:54:14.074Z,24.20
2018-05-16T07:56:39.169Z,24.19
2018-05-16T07:59:05.838Z,24.30
2018-05-16T08:01:32.469Z,24.30
2018-05-16T08:03:59.177Z,24.53
2018-05-16T08:06:28.688Z,24.67
2018-05-16T08:08:55.397Z,24.73
2018-05-16T08:11:22.046Z,24.46
2018-05-16T08:13:50.758Z,24.24
2018-05-16T08:16:17.413Z,24.21
2018-05-16T08:18:44.062Z,24.38
2018-05-16T08:21:10.760Z,24.60
2018-05-16T08:23:37.409Z,24.74
2018-05-16T08:26:04.038Z,24.51
2018-05-16T08:28:30.725Z,24.42
2018-05-16T08:30:57.448Z,24.35
2018-05-16T08:33:24.128Z,24.43
2018-05-16T08:35:50.807Z,24.41
2018-05-16T08:38:18.027Z,24.36
2018-05-16T08:40:44.732Z,24.60
2018-05-16T08:43:11.430Z,24.63
2018-05-16T08:45:38.067Z,24.83
2018-05-16T08:48:04.745Z,24.59
2018-05-16T08:50:31.478Z,24.59
2018-05-16T08:52:58.119Z,24.24
2018-05-16T08:55:24.758Z,24.16
2018-05-16T08:57:51.409Z,23.95
2018-05-16T09:00:18.040Z,24.13
2018-05-16T09:02:44.691Z,24.12
2018-05-16T09:05:11.370Z,24.08
2018-05-16T09:07:38.012Z,24.14
2018-05-16T09:10:04.775Z,24.20
2018-05-16T09:12:31.419Z,24.36
2018-05-16T09:14:58.112Z,24.49
2018-05-16T09:17:24.881Z,24.54
2018-05-16T09:19:51.444Z,24.64
2018-05-16T09:22:18.109Z,24.60
2018-05-16T09:24:44.751Z,24.25
2018-05-16T09:27:11.437Z,24.18
2018-05-16T09:29:38.078Z,24.37
2018-05-16T09:32:04.712Z,24.50
2018-05-16T09:34:31.397Z,24.65
2018-05-16T09:36:58.060Z,24.59
2018-05-16T09:39:24.739Z,24.57
2018-05-16T09:41:51.379Z,24.43
2018-05-16T09:44:18.141Z,24.56
2018-05-16T09:46:44.791Z,24.71
2018-05-16T09:49:11.481Z,24.69
2018-05-16T09:51:38.121Z,24.86
2018-05-16T09:54:04.803Z,24.69
2018-05-16T09:56:31.485Z,24.50
2018-05-16T09:58:58.157Z,24.41
2018-05-16T10:01:24.770Z,24.25
2018-05-16T10:03:51.411Z,24.48
2018-05-16T10:06:18.061Z,24.61
2018-05-16T10:08:44.697Z,24.75
2018-05-16T10:11:11.426Z,24.80
2018-05-16T10:13:38.027Z,24.40
2018-05-16T10:16:04.702Z,24.31
2018-05-16T10:18:31.353Z,24.01
2018-05-16T10:20:57.987Z,24.26
2018-05-16T10:23:24.675Z,24.48
2018-05-16T10:25:51.342Z,24.80
2018-05-16T10:28:20.626Z,24.38
2018-05-16T10:30:47.422Z,24.26
2018-05-16T10:33:15.053Z,24.21
2018-05-16T10:35:41.724Z,24.35
2018-05-16T10:38:08.535Z,24.71
2018-05-16T10:40:35.174Z,24.68
2018-05-16T10:43:01.827Z,24.37
2018-05-16T10:45:28.652Z,24.30
2018-05-16T10:47:55.289Z,23.94
2018-05-16T10:50:21.968Z,24.26
2018-05-16T10:52:48.617Z,24.51
2018-05-16T10:55:15.338Z,24.81
2018-05-16T10:57:41.978Z,24.52
2018-05-16T11:00:08.743Z,24.29
2018-05-16T11:02:35.389Z,24.37
2018-05-16T11:05:02.055Z,24.56
2018-05-16T11:07:28.715Z,24.70
2018-05-16T11:09:55.354Z,24.47
2018-05-16T11:12:21.995Z,24.33
2018-05-16T11:14:48.692Z,24.20
2018-05-16T11:17:15.364Z,24.21
2018-05-16T11:19:43.475Z,24.47
2018-05-16T11:22:08.636Z,24.79
2018-05-16T11:24:35.288Z,24.33
2018-05-16T11:27:01.992Z,24.10
2018-05-16T11:29:28.790Z,23.87
2018-05-16T11:31:55.485Z,24.28
2018-05-16T11:34:22.385Z,24.62
2018-05-16T11:36:49.041Z,24.55
2018-05-16T11:39:15.816Z,24.19
2018-05-16T11:41:42.465Z,24.04
2018-05-16T11:44:09.126Z,23.93
2018-05-16T11:46:35.798Z,24.30
2018-05-16T11:49:02.456Z,24.50
2018-05-16T11:51:29.432Z,24.55
2018-05-16T11:53:56.051Z,24.09
2018-05-16T11:56:22.710Z,23.97
2018-05-16T11:58:49.399Z,24.36
2018-05-16T12:01:16.081Z,24.53
2018-05-16T12:03:42.806Z,24.73
2018-05-16T12:06:09.477Z,24.40
2018-05-16T12:08:36.082Z,24.00
2018-05-16T12:11:02.736Z,24.08
2018-05-16T12:13:29.407Z,24.27
2018-05-16T12:15:56.015Z,24.53
2018-05-16T12:18:22.662Z,24.67
2018-05-16T12:20:49.453Z,24.73
2018-05-16T12:23:16.129Z,24.69
2018-05-16T12:25:42.735Z,24.75
2018-05-16T12:28:09.432Z,24.58
2018-05-16T12:30:36.054Z,24.14
2018-05-16T12:33:02.729Z,24.18
2018-05-16T12:35:29.366Z,24.33
2018-05-16T12:37:56.002Z,24.52
2018-05-16T12:40:22.779Z,24.74
2018-05-16T12:42:49.537Z,24.69
2018-05-16T12:45:16.161Z,24.41
2018-05-16T12:47:45.573Z,24.26
2018-05-16T12:50:12.259Z,24.35
2018-05-16T12:52:39.012Z,24.60
2018-05-16T12:55:05.691Z,24.76
2018-05-16T12:57:32.301Z,24.47
2018-05-16T13:00:01.321Z,24.07
2018-05-16T13:02:27.916Z,23.96
2018-05-16T13:04:54.597Z,24.38
2018-05-16T13:07:21.265Z,24.52
2018-05-16T13:09:48.014Z,24.71
2018-05-16T13:12:14.652Z,24.49
2018-05-16T13:14:41.374Z,24.10
2018-05-16T13:17:08.022Z,24.10
2018-05-16T13:19:34.688Z,24.30
2018-05-16T13:22:01.379Z,24.63
2018-05-16T13:24:28.027Z,24.87
2018-05-16T13:26:54.748Z,24.74
2018-05-16T13:29:21.419Z,24.32
2018-05-16T13:31:48.078Z,24.11
2018-05-16T13:34:14.731Z,24.27
2018-05-16T13:36:41.454Z,24.44
2018-05-16T13:39:08.133Z,24.63
2018-05-16T13:41:34.850Z,24.75
2018-05-16T13:44:01.467Z,24.76
2018-05-16T13:46:28.215Z,24.52
2018-05-16T13:48:54.777Z,24.23
2018-05-16T13:51:21.488Z,24.17
2018-05-16T13:53:48.135Z,24.31
2018-05-16T13:56:14.758Z,24.52
2018-05-16T13:58:41.399Z,24.74
2018-05-16T14:01:08.149Z,24.83
2018-05-16T14:03:34.851Z,24.32
2018-05-16T14:06:01.534Z,24.16
2018-05-16T14:08:28.169Z,24.35
2018-05-16T14:10:54.855Z,24.62
2018-05-16T14:13:21.493Z,24.74
2018-05-16T14:15:48.142Z,24.86
2018-05-16T14:18:14.817Z,24.36
2018-05-16T14:20:41.651Z,24.12
2018-05-16T14:23:08.338Z,24.24
2018-05-16T14:25:35.028Z,24.55
2018-05-16T14:28:01.746Z,24.63
2018-05-16T14:30:28.745Z,24.77
2018-05-16T14:32:55.348Z,24.59
2018-05-16T14:35:22.004Z,24.45
2018-05-16T14:37:48.657Z,24.35
2018-05-16T14:40:15.298Z,24.31
2018-05-16T14:42:42.056Z,24.56
2018-05-16T14:45:08.601Z,24.70
2018-05-16T14:47:35.254Z,24.81
2018-05-16T14:50:01.984Z,24.38
2018-05-16T14:52:28.620Z,24.25
2018-05-16T14:54:56.658Z,24.24
2018-05-16T14:57:21.894Z,24.51
2018-05-16T14:59:48.596Z,24.71
2018-05-16T15:02:15.662Z,24.77
2018-05-16T15:04:42.378Z,24.25
2018-05-16T15:07:09.003Z,24.18
2018-05-16T15:09:35.641Z,24.24
2018-05-16T15:12:02.295Z,24.41
2018-05-16T15:14:28.945Z,24.62
2018-05-16T15:16:55.636Z,24.75
2018-05-16T15:19:22.274Z,24.65
2018-05-16T15:21:48.930Z,24.17
2018-05-16T15:24:15.580Z,24.12
2018-05-16T15:26:42.219Z,23.98
2018-05-16T15:29:08.903Z,23.92
2018-05-16T15:31:35.605Z,23.97
2018-05-16T15:34:02.242Z,23.98
2018-05-16T15:36:28.882Z,24.17
2018-05-16T15:38:55.562Z,24.38
2018-05-16T15:41:22.316Z,24.51
2018-05-16T15:43:48.999Z,24.57
2018-05-16T15:46:15.670Z,24.64
2018-05-16T15:48:42.319Z,24.71
2018-05-16T15:51:09.004Z,24.75
2018-05-16T15:53:35.688Z,24.77
2018-05-16T15:56:02.319Z,24.88
2018-05-16T15:58:28.989Z,24.87
2018-05-16T16:00:55.613Z,24.64
2018-05-16T16:03:22.261Z,24.61
2018-05-16T16:05:48.897Z,24.72
2018-05-16T16:08:15.683Z,24.76
2018-05-16T16:10:42.217Z,24.83
2018-05-16T16:13:08.851Z,24.88
2018-05-16T16:15:35.501Z,24.89
2018-05-16T16:18:02.134Z,24.92
2018-05-16T16:20:28.770Z,24.94
2018-05-16T16:22:55.449Z,24.97
2018-05-16T16:25:22.053Z,24.28
2018-05-16T16:27:48.726Z,24.30
2018-05-16T16:30:15.346Z,24.40
2018-05-16T16:32:42.141Z,24.52
2018-05-16T16:35:08.779Z,24.56
2018-05-16T16:37:35.412Z,24.72
2018-05-16T16:40:03.418Z,24.75
2018-05-16T16:42:28.690Z,24.81
2018-05-16T16:44:55.427Z,24.81
2018-05-16T16:47:22.019Z,24.84
2018-05-16T16:49:48.785Z,24.87
2018-05-16T16:52:15.473Z,24.87
2018-05-16T16:54:42.115Z,24.97
2018-05-16T16:57:08.918Z,24.97
2018-05-16T16:59:35.490Z,24.91
2018-05-16T17:02:02.140Z,24.92
2018-05-16T17:04:28.780Z,24.90
2018-05-16T17:06:55.422Z,24.93
2018-05-16T17:09:22.138Z,24.96
2018-05-16T17:11:48.746Z,24.98
2018-05-16T17:14:15.384Z,24.97
2018-05-16T17:16:42.018Z,24.94
2018-05-16T17:19:08.675Z,24.96
2018-05-16T17:21:35.301Z,24.94
2018-05-16T17:24:01.985Z,24.95
2018-05-16T17:26:28.585Z,24.90
2018-05-16T17:28:55.243Z,24.90
2018-05-16T17:31:21.921Z,24.96
2018-05-16T17:33:48.555Z,24.85
2018-05-16T17:36:17.756Z,24.82
2018-05-16T17:38:44.397Z,24.78
2018-05-16T17:41:11.031Z,24.87
2018-05-16T17:43:41.106Z,24.90
2018-05-16T17:46:07.855Z,24.84
2018-05-16T17:48:34.446Z,24.78
2018-05-16T17:51:01.077Z,24.80
2018-05-16T17:53:27.722Z,24.77
2018-05-16T17:55:54.355Z,24.73
2018-05-16T17:58:20.994Z,24.81
2018-05-16T18:00:47.678Z,24.73
2018-05-16T18:03:14.306Z,24.77
2018-05-16T18:05:40.944Z,24.70
2018-05-16T18:08:07.586Z,24.68
2018-05-16T18:10:34.224Z,24.61
2018-05-16T18:13:00.869Z,24.59
2018-05-16T18:15:27.546Z,24.59
2018-05-16T18:17:54.181Z,24.54
2018-05-16T18:20:20.824Z,24.52
2018-05-16T18:22:47.511Z,24.53
2018-05-16T18:25:14.146Z,24.49
2018-05-16T18:27:40.845Z,24.48
2018-05-16T18:30:07.491Z,24.45
2018-05-16T18:32:34.151Z,24.45
2018-05-16T18:35:00.845Z,24.41
2018-05-16T18:37:27.480Z,24.42
2018-05-16T18:39:54.219Z,24.37
2018-05-16T18:42:20.855Z,24.38
2018-05-16T18:44:47.465Z,24.33
2018-05-16T18:47:14.101Z,24.32
2018-05-16T18:49:40.745Z,24.30
2018-05-16T18:52:07.381Z,24.28
2018-05-16T18:54:34.032Z,24.29
2018-05-16T18:57:00.671Z,24.28
2018-05-16T18:59:27.315Z,24.31
2018-05-16T19:01:53.957Z,24.27
2018-05-16T19:04:20.599Z,24.23
2018-05-16T19:06:47.313Z,24.21
2018-05-16T19:09:13.875Z,24.26
2018-05-16T19:11:40.506Z,24.26
2018-05-16T19:14:07.154Z,24.18
2018-05-16T19:16:33.789Z,24.20
2018-05-16T19:19:00.480Z,24.16
2018-05-16T19:21:27.117Z,24.13
2018-05-16T19:23:53.745Z,24.15
2018-05-16T19:26:20.423Z,24.14
2018-05-16T19:28:47.104Z,24.13
2018-05-16T19:31:13.756Z,24.13
2018-05-16T19:33:40.393Z,24.10
2018-05-16T19:36:07.093Z,24.10
2018-05-16T19:38:33.848Z,24.11
2018-05-16T19:41:00.478Z,24.07
2018-05-16T19:43:27.110Z,24.05
2018-05-16T19:45:53.794Z,24.03
2018-05-16T19:48:20.437Z,24.06
2018-05-16T19:50:47.069Z,24.02
2018-05-16T19:53:13.762Z,24.00
2018-05-16T19:55:41.782Z,24.00
2018-05-16T19:58:07.225Z,23.97
2018-05-16T20:00:33.830Z,23.98
2018-05-16T20:03:00.474Z,23.97
2018-05-16T20:05:27.121Z,23.93
2018-05-16T20:07:56.043Z,23.93
2018-05-16T20:10:20.437Z,23.92
2018-05-16T20:12:47.107Z,23.93
2018-05-16T20:15:13.714Z,23.88
2018-05-16T20:17:40.442Z,23.87
2018-05-16T20:20:07.156Z,23.87
2018-05-16T20:22:33.788Z,23.86
2018-05-16T20:25:00.463Z,23.84
2018-05-16T20:27:27.143Z,23.85
2018-05-16T20:29:53.861Z,23.83
2018-05-16T20:32:20.515Z,23.81
2018-05-16T20:34:47.152Z,23.78
2018-05-16T20:37:13.803Z,23.77
2018-05-16T20:39:40.456Z,23.78
2018-05-16T20:42:07.103Z,23.77
2018-05-16T20:44:33.787Z,23.76
2018-05-16T20:47:00.421Z,23.76
2018-05-16T20:49:27.052Z,23.75
2018-05-16T20:51:53.699Z,23.71
2018-05-16T20:54:20.329Z,23.71
2018-05-16T20:56:47.018Z,23.70
2018-05-16T20:59:13.657Z,23.69
2018-05-16T21:01:40.360Z,23.66
2018-05-16T21:04:06.986Z,23.66
2018-05-16T21:06:33.616Z,23.65
2018-05-16T21:09:00.296Z,23.64
2018-05-16T21:11:26.936Z,23.63
2018-05-16T21:13:53.618Z,23.60
2018-05-16T21:16:20.247Z,23.61
2018-05-16T21:18:46.886Z,23.60
2018-05-16T21:21:13.538Z,23.58
2018-05-16T21:23:40.174Z,23.57
2018-05-16T21:26:06.854Z,23.55
2018-05-16T21:28:33.484Z,23.53
2018-05-16T21:31:00.118Z,23.53
2018-05-16T21:33:26.762Z,23.52
2018-05-16T21:35:53.441Z,23.53
2018-05-16T21:38:20.074Z,23.50
2018-05-16T21:40:46.749Z,23.48
2018-05-16T21:43:13.432Z,23.49
2018-05-16T21:45:40.094Z,23.49
2018-05-16T21:48:06.732Z,23.49
2018-05-16T21:50:33.400Z,23.48
2018-05-16T21:53:00.034Z,23.46
2018-05-16T21:55:26.672Z,23.45
2018-05-16T21:57:53.387Z,23.43
2018-05-16T22:00:20.065Z,23.42
2018-05-16T22:02:46.751Z,23.42
2018-05-16T22:05:13.436Z,23.43
2018-05-16T22:07:40.070Z,23.40
2018-05-16T22:10:06.715Z,23.40
2018-05-16T22:12:33.386Z,23.39
2018-05-16T22:15:00.059Z,23.39
2018-05-16T22:17:26.694Z,23.37
2018-05-16T22:19:53.364Z,23.38
2018-05-16T22:22:19.970Z,23.34
2018-05-16T22:24:46.633Z,23.32
2018-05-16T22:27:13.280Z,23.32
2018-05-16T22:29:39.922Z,23.31
2018-05-16T22:32:06.604Z,23.27
2018-05-16T22:34:33.238Z,23.30
2018-05-16T22:36:59.912Z,23.29
2018-05-16T22:39:26.542Z,23.25
2018-05-16T22:41:53.181Z,23.26
2018-05-16T22:44:19.813Z,23.26
2018-05-16T22:46:46.464Z,23.24
2018-05-16T22:49:13.140Z,23.22
2018-05-16T22:51:39.774Z,23.24
2018-05-16T22:54:06.457Z,23.20
2018-05-16T22:56:33.102Z,23.19
2018-05-16T22:58:59.746Z,23.18
2018-05-16T23:01:26.390Z,23.15
2018-05-16T23:03:53.065Z,23.15
2018-05-16T23:06:19.783Z,23.15
2018-05-16T23:08:46.385Z,23.11
2018-05-16T23:11:13.025Z,23.12
2018-05-16T23:13:39.663Z,23.11
2018-05-16T23:16:06.373Z,23.07
2018-05-16T23:18:32.990Z,23.09
2018-05-16T23:20:59.628Z,23.10
2018-05-16T23:23:26.307Z,23.10
2018-05-16T23:25:52.944Z,23.04
2018-05-16T23:28:19.618Z,23.06
2018-05-16T23:30:46.326Z,23.04
2018-05-16T23:33:12.929Z,23.04
2018-05-16T23:35:39.573Z,23.04
2018-05-16T23:38:06.206Z,23.03
2018-05-16T23:40:32.916Z,23.03
2018-05-16T23:42:59.559Z,23.00
2018-05-16T23:45:26.208Z,22.99
2018-05-16T23:47:52.843Z,23.00
2018-05-16T23:50:19.481Z,22.96
2018-05-16T23:52:46.131Z,22.97
2018-05-16T23:55:12.769Z,22.96
2018-05-16T23:57:39.414Z,22.94
